createdAt,value
2022-10-19T00:02:37.072Z,5.51
2022-10-19T00:05:22.850Z,5.33
2022-10-19T00:08:08.595Z,5.82
2022-10-19T00:10:54.415Z,4.85
2022-10-19T00:13:40.336Z,4.63
2022-10-19T00:16:26.174Z,5.30
2022-10-19T00:19:11.948Z,5.56
2022-10-19T00:21:57.734Z,5.60
2022-10-19T00:24:43.605Z,5.73
2022-10-19T00:27:29.390Z,5.84
2022-10-19T00:30:15.240Z,5.34
2022-10-19T00:33:01.125Z,5.46
2022-10-19T00:35:46.856Z,5.10
2022-10-19T00:38:32.752Z,4.80
2022-10-19T00:41:18.674Z,5.30
2022-10-19T00:44:04.544Z,5.11
2022-10-19T00:46:50.399Z,5.58
2022-10-19T00:49:36.182Z,5.32
2022-10-19T00:52:22.095Z,5.26
2022-10-19T00:55:07.797Z,4.95
2022-10-19T00:57:53.608Z,4.91
2022-10-19T01:00:39.409Z,4.69
2022-10-19T01:03:25.250Z,4.61
2022-10-19T01:06:11.031Z,5.09
2022-10-19T01:08:56.972Z,5.38
2022-10-19T01:11:42.861Z,5.80
2022-10-19T01:14:28.809Z,6.00
2022-10-19T01:17:14.706Z,6.07
2022-10-19T01:20:00.585Z,5.94
2022-10-19T01:22:46.757Z,6.19
2022-10-19T01:25:32.592Z,6.06
2022-10-19T01:28:18.492Z,5.28
2022-10-19T01:31:04.445Z,4.96
2022-10-19T01:33:50.289Z,4.90
2022-10-19T01:36:36.349Z,6.12
2022-10-19T01:39:22.263Z,5.68
2022-10-19T01:42:08.173Z,5.29
2022-10-19T01:44:54.213Z,5.28
2022-10-19T01:47:40.100Z,5.27
2022-10-19T01:50:25.902Z,4.83
2022-10-19T01:53:11.744Z,5.41
2022-10-19T01:55:57.655Z,5.17
2022-10-19T01:58:45.509Z,4.89
2022-10-19T02:01:31.431Z,5.38
2022-10-19T02:04:17.277Z,4.71
2022-10-19T02:07:03.118Z,5.25
2022-10-19T02:09:48.899Z,5.46
2022-10-19T02:12:34.998Z,4.88
2022-10-19T02:15:21.465Z,4.89
2022-10-19T02:18:07.491Z,3.99
2022-10-19T02:20:53.271Z,3.74
2022-10-19T02:23:39.248Z,3.78
2022-10-19T02:26:25.042Z,3.95
2022-10-19T02:29:10.920Z,3.75
2022-10-19T02:31:56.794Z,3.63
2022-10-19T02:34:42.625Z,3.43
2022-10-19T02:37:28.452Z,3.27
2022-10-19T02:40:14.220Z,3.45
2022-10-19T02:43:00.077Z,3.03
2022-10-19T02:45:48.160Z,3.16
2022-10-19T02:48:36.047Z,3.12
2022-10-19T02:51:21.935Z,3.41
2022-10-19T02:54:07.835Z,3.78
2022-10-19T02:56:53.615Z,3.63
2022-10-19T02:59:39.387Z,3.74
2022-10-19T03:02:25.310Z,3.89
2022-10-19T03:05:11.103Z,4.24
2022-10-19T03:07:57.087Z,4.62
2022-10-19T03:10:42.799Z,5.29
2022-10-19T03:13:28.766Z,4.95
2022-10-19T03:16:14.681Z,4.64
2022-10-19T03:19:00.655Z,4.88
2022-10-19T03:21:46.401Z,4.86
2022-10-19T03:24:32.302Z,4.98
2022-10-19T03:27:18.169Z,5.13
2022-10-19T03:30:04.016Z,5.24
2022-10-19T03:32:49.771Z,5.72
2022-10-19T03:35:35.652Z,5.31
2022-10-19T03:38:21.547Z,5.65
2022-10-19T03:41:07.231Z,5.58
2022-10-19T03:43:53.127Z,5.90
2022-10-19T03:46:38.985Z,5.58
2022-10-19T03:49:24.856Z,6.06
2022-10-19T03:52:10.882Z,6.10
2022-10-19T03:54:56.623Z,6.08
2022-10-19T03:57:42.443Z,5.77
2022-10-19T04:00:28.269Z,5.57
2022-10-19T04:03:14.112Z,5.61
2022-10-19T04:06:00.068Z,6.12
2022-10-19T04:08:45.788Z,5.75
2022-10-19T04:11:31.629Z,6.24
2022-10-19T04:14:45.767Z,6.71
2022-10-19T04:17:45.638Z,6.56
2022-10-19T04:20:34.008Z,6.90
2022-10-19T04:23:19.799Z,6.93
2022-10-19T04:26:05.720Z,6.54
2022-10-19T04:28:51.604Z,6.53
2022-10-19T04:31:37.677Z,6.32
2022-10-19T04:34:23.526Z,6.28
2022-10-19T04:37:09.353Z,6.49
2022-10-19T04:39:55.241Z,6.85
2022-10-19T04:42:41.175Z,6.61
2022-10-19T04:45:26.908Z,6.76
2022-10-19T04:48:15.027Z,6.88
2022-10-19T04:51:01.288Z,7.22
2022-10-19T04:53:46.912Z,7.49
2022-10-19T04:56:32.856Z,7.11
2022-10-19T04:59:20.696Z,7.20
2022-10-19T05:02:06.621Z,7.56
2022-10-19T05:04:52.559Z,7.70
2022-10-19T05:07:38.478Z,7.43
2022-10-19T05:10:24.357Z,6.89
2022-10-19T05:13:10.484Z,6.58
2022-10-19T05:15:56.226Z,6.40
2022-10-19T05:18:42.167Z,5.86
2022-10-19T05:21:27.946Z,6.51
2022-10-19T05:24:13.672Z,6.67
2022-10-19T05:26:59.543Z,7.13
2022-10-19T05:29:45.325Z,7.74
2022-10-19T05:32:31.227Z,7.49
2022-10-19T05:35:22.358Z,7.12
2022-10-19T05:38:08.643Z,5.89
2022-10-19T05:40:54.343Z,6.96
2022-10-19T05:43:40.237Z,6.13
2022-10-19T05:46:26.008Z,10.49
2022-10-19T05:49:11.831Z,11.22
2022-10-19T05:51:57.703Z,10.51
2022-10-19T05:54:43.455Z,10.28
2022-10-19T05:57:29.407Z,10.49
2022-10-19T06:00:15.304Z,9.17
2022-10-19T06:03:01.200Z,8.10
2022-10-19T06:05:47.039Z,7.57
2022-10-19T06:08:32.724Z,7.16
2022-10-19T06:11:18.681Z,8.71
2022-10-19T06:14:04.401Z,9.25
2022-10-19T06:16:50.169Z,9.19
2022-10-19T06:19:35.953Z,8.82
2022-10-19T06:22:21.646Z,8.29
2022-10-19T06:25:07.537Z,7.98
2022-10-19T06:27:53.379Z,8.21
2022-10-19T06:30:39.382Z,8.00
2022-10-19T06:33:25.185Z,7.98
2022-10-19T06:36:11.031Z,7.55
2022-10-19T06:38:56.888Z,7.80
2022-10-19T06:41:42.925Z,7.69
2022-10-19T06:44:28.629Z,8.09
2022-10-19T06:47:14.570Z,9.03
2022-10-19T06:50:00.407Z,9.10
2022-10-19T06:52:46.085Z,8.99
2022-10-19T06:55:31.830Z,10.16
2022-10-19T06:58:17.731Z,8.83
2022-10-19T07:01:03.764Z,7.56
2022-10-19T07:03:50.113Z,7.34
2022-10-19T07:06:35.832Z,7.28
2022-10-19T07:09:21.760Z,6.99
2022-10-19T07:12:07.612Z,7.11
2022-10-19T07:14:53.487Z,7.87
2022-10-19T07:17:39.455Z,7.02
2022-10-19T07:20:25.213Z,6.73
2022-10-19T07:23:11.226Z,6.81
2022-10-19T07:25:57.062Z,7.27
2022-10-19T07:28:44.853Z,7.53
2022-10-19T07:31:30.766Z,6.90
2022-10-19T07:34:16.606Z,6.95
2022-10-19T07:37:02.525Z,6.87
2022-10-19T07:39:48.368Z,6.53
2022-10-19T07:42:34.286Z,6.72
2022-10-19T07:45:20.317Z,6.28
2022-10-19T07:48:06.248Z,6.20
2022-10-19T07:50:52.044Z,11.14
2022-10-19T07:53:38.201Z,113.49
2022-10-19T07:56:24.151Z,35.79
2022-10-19T07:59:10.003Z,12.48
2022-10-19T08:01:55.973Z,9.54
2022-10-19T08:05:00.280Z,8.09
2022-10-19T08:07:47.821Z,6.96
2022-10-19T08:10:33.737Z,9.09
2022-10-19T08:13:19.664Z,9.00
2022-10-19T08:16:05.562Z,9.43
2022-10-19T08:18:51.547Z,11.48
2022-10-19T08:21:37.427Z,10.38
2022-10-19T08:24:23.545Z,10.07
2022-10-19T08:27:09.567Z,8.18
2022-10-19T08:29:55.384Z,7.31
2022-10-19T08:32:41.247Z,7.71
2022-10-19T08:35:27.183Z,9.16
2022-10-19T08:38:13.001Z,11.19
2022-10-19T08:40:58.949Z,11.58
2022-10-19T08:43:44.746Z,10.90
2022-10-19T08:46:30.725Z,10.67
2022-10-19T08:49:16.675Z,8.79
2022-10-19T08:52:02.434Z,7.79
2022-10-19T08:54:48.185Z,9.69
2022-10-19T08:57:34.201Z,9.51
2022-10-19T09:00:20.457Z,10.20
2022-10-19T09:03:06.438Z,11.04
2022-10-19T09:05:52.163Z,10.62
2022-10-19T09:08:38.051Z,11.09
2022-10-19T09:11:24.006Z,11.00
2022-10-19T09:14:09.807Z,11.18
2022-10-19T09:16:55.730Z,11.03
2022-10-19T09:19:41.658Z,10.44
2022-10-19T09:22:27.439Z,10.83
2022-10-19T09:25:13.435Z,26.64
2022-10-19T09:27:59.315Z,28.32
2022-10-19T09:30:45.250Z,11.23
2022-10-19T09:33:31.106Z,12.11
2022-10-19T09:36:22.636Z,12.32
2022-10-19T09:39:13.797Z,13.01
2022-10-19T09:41:59.718Z,13.24
2022-10-19T09:44:47.629Z,12.38
2022-10-19T09:47:33.903Z,12.71
2022-10-19T09:50:22.000Z,13.54
2022-10-19T09:53:07.923Z,14.00
2022-10-19T09:55:53.859Z,14.55
2022-10-19T09:58:39.878Z,14.23
2022-10-19T10:01:29.615Z,14.01
2022-10-19T10:04:19.438Z,15.32
2022-10-19T10:07:05.203Z,14.80
2022-10-19T10:09:51.190Z,15.14
2022-10-19T10:12:37.238Z,14.47
2022-10-19T10:15:23.010Z,13.87
2022-10-19T10:18:08.776Z,12.54
2022-10-19T10:20:54.713Z,13.47
2022-10-19T10:23:40.690Z,14.38
2022-10-19T10:26:26.925Z,14.88
2022-10-19T10:29:12.900Z,15.65
2022-10-19T10:31:58.839Z,15.87
2022-10-19T10:34:51.820Z,14.82
2022-10-19T10:37:38.901Z,15.11
2022-10-19T10:40:26.812Z,14.70
2022-10-19T10:43:12.657Z,14.61
2022-10-19T10:45:58.633Z,14.26
2022-10-19T10:48:44.493Z,15.67
2022-10-19T10:51:30.333Z,16.48
2022-10-19T10:54:16.431Z,16.77
2022-10-19T10:57:05.600Z,17.12
2022-10-19T10:59:52.779Z,16.99
2022-10-19T11:02:38.653Z,17.14
2022-10-19T11:05:26.347Z,18.75
2022-10-19T11:08:12.303Z,17.31
2022-10-19T11:10:58.416Z,17.74
2022-10-19T11:13:44.270Z,17.37
2022-10-19T11:16:30.126Z,16.31
2022-10-19T11:19:16.530Z,15.55
2022-10-19T11:22:02.392Z,14.30
2022-10-19T11:24:48.773Z,14.09
2022-10-19T11:27:35.243Z,14.35
2022-10-19T11:30:21.279Z,14.71
2022-10-19T11:33:07.326Z,14.11
2022-10-19T11:35:55.246Z,13.63
2022-10-19T11:38:41.068Z,17.04
2022-10-19T11:41:26.998Z,18.56
2022-10-19T11:44:14.935Z,19.54
2022-10-19T11:47:00.874Z,20.05
2022-10-19T11:49:46.829Z,20.52
2022-10-19T11:52:33.042Z,21.55
2022-10-19T11:55:19.172Z,20.57
2022-10-19T11:58:05.091Z,20.01
2022-10-19T12:00:50.842Z,21.48
2022-10-19T12:03:36.621Z,19.43
2022-10-19T12:06:22.569Z,18.72
2022-10-19T12:09:08.425Z,17.45
2022-10-19T12:11:54.443Z,15.38
2022-10-19T12:14:40.231Z,16.20
2022-10-19T12:17:26.208Z,16.70
2022-10-19T12:20:14.886Z,16.21
2022-10-19T12:23:03.422Z,15.37
2022-10-19T12:25:49.187Z,16.44
2022-10-19T12:28:35.116Z,18.42
2022-10-19T12:31:20.964Z,23.51
2022-10-19T12:34:06.758Z,17.67
2022-10-19T12:36:52.705Z,18.63
2022-10-19T12:39:38.493Z,14.75
2022-10-19T12:42:24.367Z,14.01
2022-10-19T12:45:10.212Z,14.81
2022-10-19T12:47:58.099Z,13.79
2022-10-19T12:50:43.938Z,12.21
2022-10-19T12:53:29.826Z,12.10
2022-10-19T12:56:15.679Z,13.65
2022-10-19T12:59:01.782Z,14.36
2022-10-19T13:01:47.813Z,15.01
2022-10-19T13:04:33.964Z,15.07
2022-10-19T13:07:20.284Z,17.06
2022-10-19T13:10:06.048Z,17.72
2022-10-19T13:12:52.044Z,18.15
2022-10-19T13:15:37.953Z,19.11
2022-10-19T13:18:23.873Z,18.86
2022-10-19T13:21:10.135Z,18.63
2022-10-19T13:23:56.237Z,19.10
2022-10-19T13:26:42.325Z,19.55
2022-10-19T13:29:28.312Z,20.78
2022-10-19T13:32:14.195Z,20.25
2022-10-19T13:35:00.197Z,21.28
2022-10-19T13:37:46.071Z,21.36
2022-10-19T13:40:32.007Z,21.38
2022-10-19T13:43:17.883Z,20.97
2022-10-19T13:46:03.621Z,20.48
2022-10-19T13:48:49.539Z,20.57
2022-10-19T13:51:35.489Z,20.36
2022-10-19T13:54:21.461Z,22.50
2022-10-19T13:57:07.440Z,19.14
2022-10-19T13:59:53.349Z,19.62
2022-10-19T14:02:39.184Z,20.07
2022-10-19T14:05:25.114Z,20.85
2022-10-19T14:08:10.966Z,20.06
2022-10-19T14:11:00.996Z,20.23
2022-10-19T14:13:47.548Z,19.44
2022-10-19T14:16:33.237Z,19.66
2022-10-19T14:19:19.062Z,19.58
2022-10-19T14:22:05.008Z,18.75
2022-10-19T14:24:50.831Z,18.50
2022-10-19T14:27:36.948Z,18.51
2022-10-19T14:30:23.230Z,18.25
2022-10-19T14:33:08.884Z,17.13
2022-10-19T14:35:54.671Z,16.03
2022-10-19T14:38:40.538Z,16.07
2022-10-19T14:41:26.522Z,16.61
2022-10-19T14:44:12.468Z,16.35
2022-10-19T14:46:58.330Z,16.92
2022-10-19T14:49:44.241Z,19.50
2022-10-19T14:52:30.224Z,15.38
2022-10-19T14:55:17.857Z,15.05
2022-10-19T14:58:03.983Z,15.42
2022-10-19T15:00:49.869Z,14.99
2022-10-19T15:03:38.110Z,15.60
2022-10-19T15:06:27.397Z,15.77
2022-10-19T15:09:24.489Z,15.37
2022-10-19T15:12:19.312Z,14.39
2022-10-19T15:15:05.186Z,13.62
2022-10-19T15:17:51.073Z,14.35
2022-10-19T15:20:44.245Z,16.20
2022-10-19T15:23:35.086Z,20.22
2022-10-19T15:26:22.901Z,22.56
2022-10-19T15:29:08.665Z,24.32
2022-10-19T15:31:54.735Z,24.61
2022-10-19T15:34:40.483Z,24.85
2022-10-19T15:40:17.440Z,23.75
2022-10-19T15:43:03.335Z,23.71
2022-10-19T15:45:49.125Z,23.55
2022-10-19T15:48:35.055Z,21.75
2022-10-19T15:51:21.886Z,19.00
2022-10-19T15:54:07.763Z,16.66
2022-10-19T15:56:53.735Z,16.79
2022-10-19T15:59:39.797Z,18.47
2022-10-19T16:02:25.652Z,19.22
2022-10-19T16:05:11.700Z,19.50
2022-10-19T16:07:57.860Z,18.86
2022-10-19T16:10:43.651Z,19.44
2022-10-19T16:13:29.485Z,19.00
2022-10-19T16:16:15.290Z,18.94
2022-10-19T16:19:01.149Z,18.55
2022-10-19T16:21:50.249Z,17.59
2022-10-19T16:24:36.504Z,18.03
2022-10-19T16:27:22.375Z,18.03
2022-10-19T16:30:08.276Z,18.47
2022-10-19T16:32:54.217Z,18.06
2022-10-19T16:35:40.077Z,18.00
2022-10-19T16:38:25.898Z,19.04
2022-10-19T16:41:11.739Z,20.63
2022-10-19T16:43:57.642Z,22.20
2022-10-19T16:46:43.439Z,20.99
2022-10-19T16:49:29.497Z,21.33
2022-10-19T16:52:15.309Z,21.42
2022-10-19T16:55:01.225Z,22.07
2022-10-19T16:57:47.138Z,21.19
2022-10-19T17:00:33.165Z,22.83
2022-10-19T17:03:18.855Z,22.92
2022-10-19T17:06:04.560Z,22.86
2022-10-19T17:09:23.603Z,22.77
2022-10-19T17:11:56.545Z,22.45
2022-10-19T17:14:42.462Z,23.16
2022-10-19T17:17:28.301Z,22.54
2022-10-19T17:20:14.449Z,21.73
2022-10-19T17:23:00.361Z,21.42
2022-10-19T17:25:48.107Z,22.03
2022-10-19T17:28:34.001Z,20.68
2022-10-19T17:31:19.919Z,21.07
2022-10-19T17:34:05.881Z,20.83
2022-10-19T17:36:51.768Z,21.17
2022-10-19T17:39:37.609Z,21.58
2022-10-19T17:42:25.469Z,22.13
2022-10-19T17:45:11.484Z,21.93
2022-10-19T17:47:57.297Z,22.78
2022-10-19T17:50:43.230Z,23.13
2022-10-19T17:53:29.251Z,22.61
2022-10-19T17:56:15.098Z,23.35
2022-10-19T17:59:01.090Z,23.17
2022-10-19T18:01:46.925Z,22.40
2022-10-19T18:04:33.132Z,22.34
2022-10-19T18:07:19.109Z,22.61
2022-10-19T18:10:06.952Z,22.80
2022-10-19T18:12:52.965Z,23.36
2022-10-19T18:15:38.879Z,23.17
2022-10-19T18:18:24.786Z,24.46
2022-10-19T18:21:10.741Z,23.89
2022-10-19T18:23:56.793Z,24.21
2022-10-19T18:26:42.739Z,24.62
2022-10-19T18:29:28.580Z,25.61
2022-10-19T18:32:14.372Z,25.49
2022-10-19T18:35:00.270Z,25.77
2022-10-19T18:37:46.149Z,25.54
2022-10-19T18:40:32.035Z,25.40
2022-10-19T18:43:17.877Z,26.37
2022-10-19T18:46:03.703Z,26.41
2022-10-19T18:48:49.518Z,26.66
2022-10-19T18:51:35.446Z,26.79
2022-10-19T18:54:21.254Z,25.82
2022-10-19T18:57:07.203Z,27.63
2022-10-19T18:59:55.169Z,27.19
2022-10-19T19:02:46.771Z,27.75
2022-10-19T19:05:33.124Z,26.80
2022-10-19T19:08:18.971Z,26.46
2022-10-19T19:11:04.863Z,28.65
2022-10-19T19:13:50.790Z,30.51
2022-10-19T19:16:36.741Z,27.37
2022-10-19T19:19:22.530Z,29.60
2022-10-19T19:22:08.841Z,32.12
2022-10-19T19:24:54.951Z,28.32
2022-10-19T19:27:40.802Z,30.00
2022-10-19T19:30:26.809Z,28.22
2022-10-19T19:33:14.659Z,32.94
2022-10-19T19:36:00.548Z,32.87
2022-10-19T19:38:46.460Z,33.77
2022-10-19T19:41:32.259Z,32.24
2022-10-19T19:44:18.162Z,31.15
2022-10-19T19:47:04.137Z,30.36
2022-10-19T19:49:49.999Z,30.73
2022-10-19T19:52:40.243Z,29.07
2022-10-19T19:55:26.506Z,32.27
2022-10-19T19:58:12.476Z,29.94
2022-10-19T20:00:58.286Z,32.06
2022-10-19T20:03:44.192Z,29.19
2022-10-19T20:06:29.981Z,28.22
2022-10-19T20:09:15.856Z,28.67
2022-10-19T20:12:01.735Z,27.14
2022-10-19T20:14:47.766Z,31.05
2022-10-19T20:17:33.834Z,29.40
2022-10-19T20:20:19.904Z,29.22
2022-10-19T20:23:05.738Z,28.53
2022-10-19T20:25:51.663Z,32.17
2022-10-19T20:28:37.480Z,30.99
2022-10-19T20:31:23.287Z,33.51
2022-10-19T20:34:09.332Z,32.11
2022-10-19T20:36:55.174Z,31.03
2022-10-19T20:39:41.115Z,31.96
2022-10-19T20:42:26.922Z,30.85
2022-10-19T20:45:12.808Z,28.07
2022-10-19T20:47:58.703Z,31.31
2022-10-19T20:50:44.659Z,34.76
2022-10-19T20:53:30.478Z,33.11
2022-10-19T20:56:16.401Z,32.28
2022-10-19T21:01:49.218Z,39.53
2022-10-19T21:04:35.165Z,33.81
2022-10-19T21:07:21.182Z,34.71
2022-10-19T21:10:06.991Z,32.97
2022-10-19T21:12:52.871Z,29.72
2022-10-19T21:15:38.653Z,32.46
2022-10-19T21:18:24.583Z,29.63
2022-10-19T21:21:10.440Z,30.19
2022-10-19T21:23:56.399Z,32.14
2022-10-19T21:26:42.161Z,30.15
2022-10-19T21:29:28.009Z,29.59
2022-10-19T21:32:13.978Z,29.32
2022-10-19T21:34:59.811Z,31.31
2022-10-19T21:37:45.772Z,33.05
2022-10-19T21:40:31.573Z,29.99
2022-10-19T21:43:17.295Z,30.15
2022-10-19T21:46:03.141Z,33.48
2022-10-19T21:48:48.975Z,30.94
2022-10-19T21:51:34.799Z,25.50
2022-10-19T21:54:20.628Z,27.70
2022-10-19T21:57:06.575Z,34.54
2022-10-19T21:59:52.538Z,33.45
2022-10-19T22:02:38.358Z,28.52
2022-10-19T22:05:24.171Z,27.30
2022-10-19T22:08:12.014Z,29.50
2022-10-19T22:10:57.804Z,28.46
2022-10-19T22:13:43.794Z,27.40
2022-10-19T22:16:29.594Z,26.99
2022-10-19T22:19:15.355Z,27.46
2022-10-19T22:22:01.295Z,28.61
2022-10-19T22:24:47.011Z,29.33
2022-10-19T22:27:32.895Z,28.95
2022-10-19T22:30:18.965Z,28.82
2022-10-19T22:33:04.782Z,29.98
2022-10-19T22:35:50.637Z,30.74
2022-10-19T22:38:36.472Z,30.23
2022-10-19T22:41:22.414Z,28.77
2022-10-19T22:44:08.470Z,27.73
2022-10-19T22:46:54.259Z,28.19
2022-10-19T22:49:40.167Z,27.52
2022-10-19T22:52:26.025Z,28.71
2022-10-19T22:55:11.829Z,28.23
2022-10-19T22:57:57.791Z,27.32
2022-10-19T23:00:43.783Z,28.32
2022-10-19T23:03:31.565Z,28.99
2022-10-19T23:06:17.510Z,28.09
2022-10-19T23:09:03.419Z,27.64
2022-10-19T23:11:49.283Z,28.90
2022-10-19T23:14:35.197Z,25.84
2022-10-19T23:17:23.035Z,26.33
2022-10-19T23:20:08.920Z,26.89
2022-10-19T23:22:54.880Z,26.18
2022-10-19T23:25:40.570Z,25.80
2022-10-19T23:28:26.468Z,23.79
2022-10-19T23:31:12.241Z,23.97
2022-10-19T23:33:58.191Z,24.94
2022-10-19T23:36:44.100Z,24.47
2022-10-19T23:39:29.836Z,25.34
2022-10-19T23:42:16.888Z,26.35
2022-10-19T23:45:03.069Z,26.80
2022-10-19T23:47:48.819Z,27.23
2022-10-19T23:50:34.793Z,27.65
2022-10-19T23:53:21.726Z,26.30
2022-10-19T23:56:07.492Z,25.83
2022-10-19T23:58:53.331Z,25.30
